Time;durP1;ratioP1;P1;durP2;ratioP2;P2;SDS_P1;SDS_P2;PMS_P1;PMS_P2;Temp;Humidity;BMP_temperature;BMP_pressure;BME280_temperature;BME280_humidity;BME280_pressure;Samples;Min_cycle;Max_cycle;Signal;HPM_P1;HPM_P2
2022/08/06 00:01:53;;;;;;;0.40;0.40;;;11.70;99.90;;;;;;4977459;28;20074;-80
2022/08/06 00:04:21;;;;;;;0.45;0.45;;;11.70;99.90;;;;;;4964593;28;20073;-80
2022/08/06 00:06:46;;;;;;;0.40;0.40;;;11.60;99.90;;;;;;4964425;28;20101;-80
2022/08/06 00:09:13;;;;;;;0.40;0.40;;;11.50;99.90;;;;;;4964646;28;20045;-80
2022/08/06 00:11:40;;;;;;;0.40;0.40;;;11.50;99.90;;;;;;4964990;28;20050;-80
2022/08/06 00:14:07;;;;;;;0.50;0.50;;;11.50;99.90;;;;;;4956030;28;20054;-79
2022/08/06 00:16:33;;;;;;;0.60;0.60;;;11.50;99.90;;;;;;4953376;28;20957;-79
2022/08/06 00:18:58;;;;;;;0.40;0.40;;;11.60;99.90;;;;;;4952627;28;20185;-79
2022/08/06 00:21:24;;;;;;;0.40;0.40;;;11.60;99.90;;;;;;4965594;28;20054;-80
2022/08/06 00:23:50;;;;;;;0.50;0.50;;;11.50;99.90;;;;;;4968946;28;20131;-79
2022/08/06 00:26:16;;;;;;;0.40;0.40;;;11.50;99.90;;;;;;4963615;28;20630;-80
2022/08/06 00:28:42;;;;;;;0.40;0.40;;;11.50;99.90;;;;;;4960138;28;20046;-80
2022/08/06 00:31:08;;;;;;;0.40;0.40;;;11.50;99.90;;;;;;4962845;28;20169;-80
2022/08/06 00:33:34;;;;;;;0.40;0.40;;;11.50;99.90;;;;;;4966703;28;20061;-80
2022/08/06 00:36:00;;;;;;;0.50;0.50;;;11.50;99.90;;;;;;4965057;28;20058;-81
2022/08/06 00:38:26;;;;;;;0.40;0.40;;;11.50;99.90;;;;;;4963287;28;20046;-80
2022/08/06 00:40:53;;;;;;;0.45;0.45;;;11.40;99.90;;;;;;4963444;28;20050;-80
2022/08/06 00:43:19;;;;;;;0.40;0.40;;;11.50;99.90;;;;;;4962557;28;20525;-80
2022/08/06 00:45:45;;;;;;;0.40;0.40;;;11.50;99.90;;;;;;4960526;28;20065;-80
2022/08/06 00:48:12;;;;;;;0.40;0.40;;;11.40;99.90;;;;;;4957135;28;20049;-80
2022/08/06 00:50:38;;;;;;;0.40;0.40;;;11.40;99.90;;;;;;4964573;28;20141;-80
2022/08/06 00:53:04;;;;;;;0.40;0.40;;;11.30;99.90;;;;;;4963695;28;20145;-80
2022/08/06 00:55:31;;;;;;;0.40;0.40;;;11.30;99.90;;;;;;4963897;28;20133;-80
2022/08/06 00:57:57;;;;;;;0.40;0.40;;;11.40;99.90;;;;;;4962938;28;20553;-79
2022/08/06 01:00:23;;;;;;;0.40;0.40;;;11.40;99.90;;;;;;4963787;28;20496;-80
2022/08/06 01:02:49;;;;;;;0.40;0.40;;;11.40;99.90;;;;;;4965003;28;20081;-79
2022/08/06 01:05:15;;;;;;;0.40;0.40;;;11.50;99.90;;;;;;4967612;28;20053;-79
2022/08/06 01:07:40;;;;;;;0.40;0.40;;;11.50;99.90;;;;;;4968553;28;20112;-79
2022/08/06 01:10:06;;;;;;;0.40;0.40;;;11.40;99.90;;;;;;4980870;28;21097;-79
2022/08/06 01:12:32;;;;;;;0.52;0.52;;;11.40;99.90;;;;;;4961585;28;20224;-79
2022/08/06 01:14:58;;;;;;;0.40;0.40;;;11.50;99.90;;;;;;4974348;28;20712;-79
2022/08/06 01:17:42;;;;;;;0.40;0.40;;;11.40;99.90;;;;;;4975287;28;20474;-79
2022/08/06 01:20:14;;;;;;;0.40;0.40;;;11.40;99.90;;;;;;4974491;28;20400;-80
2022/08/06 01:23:14;;;;;;;0.40;0.40;;;11.40;99.90;;;;;;4971481;28;21378;-80
2022/08/06 01:26:00;;;;;;;0.40;0.40;;;11.50;99.90;;;;;;4960168;28;20073;-80
2022/08/06 01:28:37;;;;;;;0.40;0.40;;;11.50;99.90;;;;;;4967528;28;20915;-80
2022/08/06 01:31:08;;;;;;;0.40;0.40;;;11.40;99.90;;;;;;4970475;28;21075;-80
2022/08/06 01:33:48;;;;;;;0.40;0.40;;;11.40;99.90;;;;;;4961284;28;20819;-80
2022/08/06 01:36:23;;;;;;;0.40;0.40;;;11.30;99.90;;;;;;4962281;28;21100;-80
2022/08/06 01:38:52;;;;;;;0.40;0.40;;;11.30;99.90;;;;;;4960461;28;20128;-81
2022/08/06 01:41:55;;;;;;;0.40;0.40;;;11.40;99.90;;;;;;4957126;28;20046;-80
2022/08/06 01:44:23;;;;;;;0.40;0.40;;;11.20;99.90;;;;;;4921462;28;20047;-81
2022/08/06 01:46:56;;;;;;;0.40;0.40;;;11.20;99.90;;;;;;4958320;28;20101;-81
2022/08/06 01:49:29;;;;;;;0.40;0.40;;;11.20;99.90;;;;;;4956197;28;20112;-80
2022/08/06 01:51:58;;;;;;;0.50;0.50;;;11.10;99.90;;;;;;4958098;28;20698;-81
2022/08/06 01:54:27;;;;;;;0.40;0.40;;;11.10;99.90;;;;;;4962957;28;20058;-80
2022/08/06 01:56:56;;;;;;;0.47;0.47;;;11.10;99.90;;;;;;4964569;28;20058;-80
2022/08/06 01:59:27;;;;;;;0.40;0.40;;;11.10;99.90;;;;;;4965288;28;20054;-79
2022/08/06 02:01:56;;;;;;;0.50;0.50;;;11.20;99.90;;;;;;4960068;28;20459;-79
2022/08/06 02:04:26;;;;;;;0.40;0.40;;;11.30;99.90;;;;;;4959662;28;20056;-80
2022/08/06 02:06:54;;;;;;;0.40;0.40;;;11.20;99.90;;;;;;4953855;28;20145;-80
2022/08/06 02:09:22;;;;;;;0.40;0.40;;;11.10;99.90;;;;;;4962411;28;20073;-80
2022/08/06 02:12:11;;;;;;;0.40;0.40;;;10.90;99.90;;;;;;4960310;28;20085;-80
2022/08/06 02:14:45;;;;;;;0.40;0.40;;;10.90;99.90;;;;;;4958525;28;20054;-80
2022/08/06 02:17:13;;;;;;;0.40;0.40;;;10.80;99.90;;;;;;4960000;28;20046;-80
2022/08/06 02:19:44;;;;;;;0.40;0.40;;;10.80;99.90;;;;;;4956886;28;20053;-79
2022/08/06 02:22:10;;;;;;;0.40;0.40;;;10.70;99.90;;;;;;4954610;28;20590;-79
2022/08/06 02:24:36;;;;;;;0.40;0.40;;;10.70;99.90;;;;;;4958939;28;20622;-79
2022/08/06 02:27:04;;;;;;;0.50;0.50;;;10.60;99.90;;;;;;4959329;28;20046;-80
2022/08/06 02:29:31;;;;;;;0.60;0.60;;;10.60;99.90;;;;;;4957016;28;21063;-80
2022/08/06 02:31:57;;;;;;;0.50;0.50;;;10.50;99.90;;;;;;4957099;28;20604;-80
2022/08/06 02:34:23;;;;;;;0.47;0.47;;;10.50;99.90;;;;;;4959028;28;20046;-80
2022/08/06 02:37:12;;;;;;;0.40;0.40;;;10.40;99.90;;;;;;4956963;28;20060;-80
2022/08/06 02:39:46;;;;;;;0.60;0.60;;;10.40;99.90;;;;;;4965008;28;20078;-80
2022/08/06 02:42:23;;;;;;;0.60;0.60;;;10.40;99.90;;;;;;4974282;28;20512;-80
2022/08/06 02:45:07;;;;;;;0.45;0.45;;;10.40;99.90;;;;;;4972523;28;20085;-79
2022/08/06 02:47:50;;;;;;;0.40;0.40;;;10.40;99.90;;;;;;4972850;28;20046;-79
2022/08/06 02:50:19;;;;;;;0.40;0.40;;;10.40;99.90;;;;;;4968864;28;20061;-79
2022/08/06 02:52:52;;;;;;;1.17;0.50;;;10.40;99.90;;;;;;4986472;28;20054;-79
2022/08/06 02:55:19;;;;;;;0.40;0.40;;;10.40;99.90;;;;;;4973647;28;20054;-79
2022/08/06 02:58:17;;;;;;;0.40;0.40;;;10.40;99.90;;;;;;4975504;28;20054;-79
2022/08/06 03:00:47;;;;;;;0.50;0.50;;;10.50;99.90;;;;;;4971146;28;20532;-80
2022/08/06 03:03:16;;;;;;;0.40;0.40;;;10.50;99.90;;;;;;4984777;28;20050;-79
2022/08/06 03:05:45;;;;;;;0.57;0.57;;;10.60;99.90;;;;;;4974011;28;20058;-79
2022/08/06 03:08:15;;;;;;;0.50;0.50;;;10.60;99.90;;;;;;4976055;28;20493;-79
2022/08/06 03:10:43;;;;;;;0.50;0.50;;;10.50;99.90;;;;;;4974277;28;20077;-79
2022/08/06 03:13:09;;;;;;;0.50;0.50;;;10.50;99.90;;;;;;4974378;28;20056;-79
2022/08/06 03:15:36;;;;;;;0.40;0.40;;;10.50;99.90;;;;;;4970771;28;20078;-79
2022/08/06 03:18:06;;;;;;;0.50;0.50;;;10.50;99.90;;;;;;4991729;28;20985;-79
2022/08/06 03:20:34;;;;;;;0.40;0.40;;;10.50;99.90;;;;;;4967716;28;20050;-79
2022/08/06 03:23:06;;;;;;;0.40;0.40;;;10.30;99.90;;;;;;4963602;28;20100;-79
2022/08/06 03:25:32;;;;;;;0.40;0.40;;;10.20;99.90;;;;;;4962021;28;20046;-79
2022/08/06 03:27:59;;;;;;;0.40;0.40;;;10.20;99.90;;;;;;4956817;28;20058;-79
2022/08/06 03:30:26;;;;;;;0.88;0.88;;;10.10;99.90;;;;;;4962918;28;20042;-79
2022/08/06 03:32:53;;;;;;;0.50;0.50;;;10.10;99.90;;;;;;4961284;28;20421;-79
2022/08/06 03:35:19;;;;;;;0.50;0.50;;;10.10;99.90;;;;;;4967635;28;20066;-80
2022/08/06 03:37:48;;;;;;;0.50;0.50;;;10.10;99.90;;;;;;4959965;28;20053;-79
2022/08/06 03:40:16;;;;;;;0.50;0.50;;;10.20;99.90;;;;;;4964166;28;20069;-79
2022/08/06 03:42:42;;;;;;;0.40;0.40;;;10.20;99.90;;;;;;4947619;28;20054;-79
2022/08/06 03:45:09;;;;;;;0.40;0.40;;;10.20;99.90;;;;;;4964550;28;20050;-79
2022/08/06 03:47:46;;;;;;;0.47;0.47;;;10.20;99.90;;;;;;4967006;28;20054;-79
2022/08/06 03:50:19;;;;;;;0.50;0.50;;;10.20;99.90;;;;;;4964875;28;20084;-80
2022/08/06 03:52:54;;;;;;;0.75;0.75;;;10.20;99.90;;;;;;4962730;28;20066;-79
2022/08/06 03:55:23;;;;;;;0.50;0.50;;;10.30;99.90;;;;;;4971603;28;20165;-79
2022/08/06 03:57:52;;;;;;;0.40;0.40;;;10.20;99.90;;;;;;4961968;28;20064;-79
2022/08/06 04:00:21;;;;;;;0.50;0.50;;;10.20;99.90;;;;;;4964849;28;20992;-80
2022/08/06 04:02:50;;;;;;;0.50;0.50;;;10.30;99.90;;;;;;4963030;28;20052;-79
2022/08/06 04:05:28;;;;;;;0.40;0.40;;;10.20;99.90;;;;;;4958971;28;20053;-79
2022/08/06 04:07:57;;;;;;;0.40;0.40;;;10.20;99.90;;;;;;4963230;28;20540;-79
2022/08/06 04:10:43;;;;;;;0.55;0.55;;;10.30;99.90;;;;;;4962244;28;20121;-79
2022/08/06 04:13:12;;;;;;;0.50;0.50;;;10.20;99.90;;;;;;4959384;28;20065;-79
2022/08/06 04:15:39;;;;;;;0.47;0.47;;;10.20;99.90;;;;;;4957558;28;20060;-79
2022/08/06 04:18:09;;;;;;;0.52;0.52;;;10.10;99.90;;;;;;4963285;28;20771;-79
2022/08/06 04:20:35;;;;;;;0.40;0.40;;;10.00;99.90;;;;;;4963332;28;20601;-79
2022/08/06 04:23:01;;;;;;;0.50;0.50;;;9.90;99.90;;;;;;4945896;28;20054;-79
2022/08/06 04:25:34;;;;;;;0.40;0.40;;;9.80;99.90;;;;;;4961628;28;20050;-79
2022/08/06 04:28:01;;;;;;;0.50;0.50;;;9.80;99.90;;;;;;4962967;28;23070;-79
2022/08/06 04:30:28;;;;;;;0.55;0.55;;;9.60;99.90;;;;;;4959321;28;20042;-80
2022/08/06 04:32:55;;;;;;;0.50;0.50;;;9.40;99.90;;;;;;4943309;28;20118;-79
2022/08/06 04:35:21;;;;;;;0.43;0.43;;;9.40;99.90;;;;;;4962872;28;20819;-79
2022/08/06 04:37:48;;;;;;;0.63;0.63;;;9.60;99.90;;;;;;4960288;28;20132;-79
2022/08/06 04:40:15;;;;;;;0.60;0.60;;;9.80;99.90;;;;;;4962617;28;20061;-79
2022/08/06 04:42:41;;;;;;;0.50;0.50;;;9.90;99.90;;;;;;4966214;28;21026;-80
2022/08/06 04:45:08;;;;;;;0.40;0.40;;;9.90;99.90;;;;;;4962616;28;20073;-79
2022/08/06 04:47:35;;;;;;;0.50;0.50;;;10.00;99.90;;;;;;4963021;28;20042;-79
2022/08/06 04:50:02;;;;;;;0.50;0.50;;;10.10;99.90;;;;;;4963883;28;20120;-80
2022/08/06 04:52:28;;;;;;;0.47;0.47;;;10.10;99.90;;;;;;4965444;28;20646;-79
2022/08/06 04:54:55;;;;;;;0.60;0.60;;;10.20;99.90;;;;;;4963255;28;20059;-80
2022/08/06 04:57:21;;;;;;;0.50;0.50;;;10.20;99.90;;;;;;4962850;28;20741;-79
2022/08/06 04:59:47;;;;;;;0.40;0.40;;;10.40;99.90;;;;;;4965079;28;20046;-79
2022/08/06 05:02:13;;;;;;;0.40;0.40;;;10.60;99.90;;;;;;4965243;28;20049;-79
2022/08/06 05:04:39;;;;;;;0.40;0.40;;;10.80;99.90;;;;;;4963471;28;20046;-79
2022/08/06 05:07:43;;;;;;;0.50;0.50;;;10.80;99.90;;;;;;4967426;28;20062;-79
2022/08/06 05:10:09;;;;;;;0.40;0.40;;;10.90;99.90;;;;;;4915912;28;20125;-79
2022/08/06 05:12:40;;;;;;;0.40;0.40;;;12.70;99.90;;;;;;4959240;28;20149;-79
2022/08/06 05:15:19;;;;;;;0.50;0.50;;;14.70;99.90;;;;;;4972503;28;20043;-79
2022/08/06 05:17:50;;;;;;;0.50;0.50;;;16.20;99.90;;;;;;4963808;28;20057;-79
2022/08/06 05:20:18;;;;;;;0.40;0.40;;;17.30;99.90;;;;;;4962704;28;20050;-79
2022/08/06 05:22:47;;;;;;;0.40;0.40;;;18.10;99.90;;;;;;4962873;28;20166;-79
2022/08/06 05:25:14;;;;;;;0.40;0.40;;;18.70;99.90;;;;;;4962766;28;20123;-79
2022/08/06 05:27:40;;;;;;;0.40;0.40;;;19.30;99.90;;;;;;4943811;28;20054;-79
2022/08/06 05:30:07;;;;;;;0.30;0.30;;;19.70;99.90;;;;;;4963203;28;20246;-79
2022/08/06 05:32:51;;;;;;;0.65;0.40;;;20.30;99.90;;;;;;4963616;28;20046;-79
2022/08/06 05:35:18;;;;;;;0.40;0.40;;;20.70;99.90;;;;;;4961628;28;20046;-79
2022/08/06 05:37:44;;;;;;;0.40;0.40;;;21.10;99.90;;;;;;4961531;28;20057;-79
2022/08/06 05:40:10;;;;;;;0.30;0.30;;;21.50;99.90;;;;;;4959962;28;20136;-81
2022/08/06 05:42:36;;;;;;;0.30;0.30;;;21.70;99.90;;;;;;4959581;28;20050;-79
2022/08/06 05:45:02;;;;;;;0.30;0.30;;;21.60;99.90;;;;;;4961804;28;20086;-79
2022/08/06 05:47:37;;;;;;;0.35;0.35;;;21.80;99.90;;;;;;4965340;28;20100;-79
2022/08/06 05:50:09;;;;;;;0.65;0.55;;;22.20;99.90;;;;;;4961315;28;20056;-79
2022/08/06 05:53:09;;;;;;;0.30;0.30;;;21.90;99.90;;;;;;4964504;28;20074;-78
2022/08/06 05:55:42;;;;;;;0.40;0.40;;;21.10;99.90;;;;;;4958811;28;20066;-80
2022/08/06 05:58:17;;;;;;;0.40;0.40;;;19.30;99.90;;;;;;4962230;28;20046;-79
2022/08/06 06:00:43;;;;;;;0.30;0.30;;;18.80;99.90;;;;;;4963222;28;20053;-80
2022/08/06 06:03:12;;;;;;;0.30;0.30;;;18.40;99.90;;;;;;4960774;28;20452;-80
2022/08/06 06:05:39;;;;;;;0.40;0.40;;;18.10;99.90;;;;;;4962626;28;20445;-78
2022/08/06 06:08:08;;;;;;;0.40;0.40;;;18.10;99.90;;;;;;4961518;28;20046;-79
2022/08/06 06:10:35;;;;;;;0.30;0.30;;;18.00;99.90;;;;;;4962885;28;20400;-79
2022/08/06 06:13:03;;;;;;;0.30;0.30;;;17.90;99.90;;;;;;4960299;28;20183;-80
2022/08/06 06:15:29;;;;;;;0.30;0.30;;;17.80;99.90;;;;;;4967735;28;20120;-80
2022/08/06 06:18:07;;;;;;;0.38;0.38;;;18.00;99.90;;;;;;4961763;28;20390;-80
2022/08/06 06:20:57;;;;;;;0.30;0.30;;;18.10;99.90;;;;;;4960450;28;20046;-80
2022/08/06 06:23:46;;;;;;;0.40;0.40;;;17.90;99.90;;;;;;4958671;28;20061;-80
2022/08/06 06:26:20;;;;;;;0.40;0.40;;;18.00;99.90;;;;;;4960236;28;20045;-79
2022/08/06 06:28:49;;;;;;;0.30;0.30;;;17.80;99.90;;;;;;4959984;28;20046;-80
2022/08/06 06:31:27;;;;;;;0.30;0.30;;;18.00;99.90;;;;;;4960273;28;20877;-80
2022/08/06 06:34:09;;;;;;;0.40;0.40;;;18.50;99.90;;;;;;4973047;28;20549;-79
2022/08/06 06:37:01;;;;;;;0.30;0.30;;;18.50;99.90;;;;;;4991062;28;20050;-79
2022/08/06 06:39:41;;;;;;;0.30;0.30;;;18.30;99.90;;;;;;4971304;28;20150;-78
2022/08/06 06:42:11;;;;;;;0.30;0.30;;;18.40;99.90;;;;;;4983344;28;20642;-80
2022/08/06 06:44:46;;;;;;;0.30;0.30;;;18.40;99.90;;;;;;4955790;28;20058;-79
2022/08/06 06:47:17;;;;;;;0.30;0.30;;;18.70;99.90;;;;;;4958988;28;20501;-79
2022/08/06 06:49:47;;;;;;;0.30;0.30;;;18.80;99.90;;;;;;4959987;28;20053;-79
2022/08/06 06:52:42;;;;;;;0.30;0.30;;;18.70;99.90;;;;;;4962651;28;20046;-80
2022/08/06 06:55:39;;;;;;;0.30;0.30;;;18.70;99.90;;;;;;4967604;28;20386;-79
2022/08/06 06:58:50;;;;;;;0.30;0.30;;;18.60;99.90;;;;;;4950356;28;20058;-79
2022/08/06 07:01:17;;;;;;;0.30;0.30;;;18.80;99.90;;;;;;4914563;28;20825;-79
2022/08/06 07:03:45;;;;;;;0.30;0.30;;;19.00;99.90;;;;;;4933927;28;20444;-78
2022/08/06 07:06:12;;;;;;;0.30;0.30;;;19.00;99.90;;;;;;4944747;28;20058;-79
2022/08/06 07:08:46;;;;;;;0.30;0.30;;;19.20;99.90;;;;;;4974032;28;20869;-79
2022/08/06 07:11:20;;;;;;;0.30;0.30;;;19.20;99.90;;;;;;4980675;28;20046;-78
2022/08/06 07:13:47;;;;;;;0.30;0.30;;;19.30;99.90;;;;;;4973194;28;20050;-79
2022/08/06 07:16:16;;;;;;;0.30;0.30;;;19.40;99.90;;;;;;4990217;28;20048;-78
2022/08/06 07:18:43;;;;;;;0.30;0.30;;;19.20;99.90;;;;;;4974292;28;20061;-78
2022/08/06 07:21:13;;;;;;;0.38;0.38;;;19.50;99.90;;;;;;4971652;28;20050;-78
2022/08/06 07:23:39;;;;;;;0.30;0.30;;;19.30;99.90;;;;;;4975251;28;20152;-79
2022/08/06 07:26:07;;;;;;;0.30;0.30;;;19.70;99.90;;;;;;4972405;28;20060;-79
2022/08/06 07:28:33;;;;;;;0.30;0.30;;;19.80;99.90;;;;;;4973532;28;20552;-79
2022/08/06 07:31:03;;;;;;;0.30;0.30;;;20.00;99.90;;;;;;4956490;28;20054;-79
2022/08/06 07:33:31;;;;;;;0.30;0.30;;;20.10;99.90;;;;;;4975776;28;20049;-79
2022/08/06 07:35:59;;;;;;;0.30;0.30;;;20.00;99.90;;;;;;4981387;28;20072;-79
2022/08/06 07:38:28;;;;;;;0.30;0.30;;;19.90;99.90;;;;;;4988078;28;20054;-79
2022/08/06 07:40:58;;;;;;;0.30;0.30;;;20.20;99.90;;;;;;4972568;28;20141;-79
2022/08/06 07:43:52;;;;;;;0.30;0.30;;;20.10;99.90;;;;;;4984468;28;20132;-79
2022/08/06 07:46:22;;;;;;;0.30;0.30;;;20.30;99.90;;;;;;4980671;28;20090;-79
2022/08/06 07:48:52;;;;;;;0.20;0.20;;;20.40;99.90;;;;;;4975563;28;20296;-78
2022/08/06 07:51:23;;;;;;;0.30;0.30;;;20.50;99.90;;;;;;4970784;28;20135;-78
2022/08/06 07:53:51;;;;;;;0.30;0.30;;;20.50;99.90;;;;;;4974415;28;20069;-80
2022/08/06 07:56:18;;;;;;;0.30;0.30;;;20.80;99.90;;;;;;4975069;28;20061;-80
2022/08/06 07:58:45;;;;;;;0.30;0.30;;;20.80;99.90;;;;;;4977285;28;20085;-79
2022/08/06 08:01:11;;;;;;;0.30;0.30;;;20.70;99.90;;;;;;4975510;28;20121;-82
2022/08/06 08:06:24;;;;;;;0.30;0.30;;;20.80;99.90;;;;;;4971868;28;20848;-81
2022/08/06 08:08:57;;;;;;;0.30;0.30;;;21.00;99.90;;;;;;4969250;28;20061;-82
2022/08/06 08:11:24;;;;;;;0.28;0.28;;;21.00;99.90;;;;;;4971224;28;20093;-82
2022/08/06 08:13:53;;;;;;;0.30;0.30;;;20.90;99.90;;;;;;4977858;28;20085;-83
2022/08/06 08:16:19;;;;;;;0.30;0.30;;;21.10;99.90;;;;;;4977165;28;20136;-81
2022/08/06 08:18:45;;;;;;;0.30;0.30;;;21.20;99.90;;;;;;4978165;28;20085;-81
2022/08/06 08:21:11;;;;;;;0.30;0.30;;;21.40;99.90;;;;;;4982009;28;20149;-82
2022/08/06 08:23:39;;;;;;;0.30;0.30;;;21.50;99.90;;;;;;4977805;28;20185;-82
2022/08/06 08:26:05;;;;;;;0.30;0.30;;;21.50;99.90;;;;;;4982199;28;20084;-81
2022/08/06 08:28:31;;;;;;;0.30;0.30;;;21.70;99.90;;;;;;4981704;28;20050;-82
2022/08/06 08:31:05;;;;;;;0.30;0.30;;;21.80;99.90;;;;;;4979812;28;20049;-81
2022/08/06 08:33:32;;;;;;;0.20;0.20;;;21.80;99.90;;;;;;4981835;28;20061;-82
2022/08/06 08:35:58;;;;;;;0.30;0.30;;;21.80;99.90;;;;;;4973049;28;20089;-83
2022/08/06 08:38:24;;;;;;;0.30;0.30;;;21.20;99.90;;;;;;4980124;28;20425;-81
2022/08/06 08:41:15;;;;;;;0.30;0.30;;;21.40;99.90;;;;;;4984585;28;20615;-83
2022/08/06 08:43:50;;;;;;;0.30;0.30;;;21.50;99.90;;;;;;4985303;28;20205;-80
2022/08/06 08:46:17;;;;;;;0.30;0.30;;;22.00;99.90;;;;;;4972907;28;20049;-81
2022/08/06 08:48:43;;;;;;;0.28;0.28;;;22.30;99.90;;;;;;4991106;28;20054;-81
2022/08/06 08:51:12;;;;;;;0.25;0.25;;;21.80;99.90;;;;;;4974202;28;20052;-82
2022/08/06 08:53:47;;;;;;;0.30;0.30;;;21.10;99.90;;;;;;4973299;28;20471;-81
2022/08/06 08:56:14;;;;;;;0.30;0.30;;;20.90;99.90;;;;;;4974980;28;20053;-82
2022/08/06 08:58:41;;;;;;;0.30;0.30;;;20.60;99.90;;;;;;4981685;28;20346;-81
2022/08/06 09:01:08;;;;;;;0.20;0.20;;;20.80;99.90;;;;;;4993746;28;20452;-81
2022/08/06 09:03:36;;;;;;;0.25;0.25;;;21.00;99.90;;;;;;4977785;28;20062;-80
2022/08/06 09:06:04;;;;;;;0.30;0.30;;;21.50;99.90;;;;;;4978076;28;20057;-80
2022/08/06 09:08:31;;;;;;;0.20;0.20;;;22.00;99.90;;;;;;4975060;28;20417;-81
2022/08/06 09:10:58;;;;;;;0.30;0.30;;;22.30;99.90;;;;;;4977945;28;20895;-81
2022/08/06 09:13:26;;;;;;;0.20;0.20;;;22.20;99.90;;;;;;4979044;28;20090;-80
2022/08/06 09:15:52;;;;;;;0.20;0.20;;;22.20;99.90;;;;;;4976784;28;20050;-82
2022/08/06 09:18:23;;;;;;;0.25;0.25;;;22.10;99.90;;;;;;4968429;28;20049;-81
2022/08/06 09:20:50;;;;;;;0.20;0.20;;;22.80;99.90;;;;;;4968970;28;20141;-81
2022/08/06 09:23:17;;;;;;;0.20;0.20;;;22.40;99.90;;;;;;4967136;28;20073;-82
2022/08/06 09:25:46;;;;;;;0.20;0.20;;;21.90;99.90;;;;;;4964014;28;20050;-82
2022/08/06 09:28:38;;;;;;;0.20;0.20;;;21.40;99.90;;;;;;4967829;28;20054;-83
2022/08/06 09:31:12;;;;;;;0.30;0.30;;;21.10;99.90;;;;;;4961982;28;20050;-81
2022/08/06 09:33:40;;;;;;;0.30;0.30;;;20.70;99.90;;;;;;4966855;28;20193;-82
2022/08/06 09:36:09;;;;;;;0.30;0.30;;;21.40;99.90;;;;;;4967119;28;20128;-81
2022/08/06 09:38:47;;;;;;;0.30;0.30;;;22.00;99.90;;;;;;4962698;28;20111;-81
2022/08/06 09:41:13;;;;;;;0.30;0.30;;;22.10;99.90;;;;;;4966755;28;20057;-81
2022/08/06 09:43:40;;;;;;;0.30;0.30;;;21.90;99.90;;;;;;4969184;28;20053;-82
2022/08/06 09:46:07;;;;;;;0.30;0.30;;;21.90;99.90;;;;;;4975571;28;20521;-83
2022/08/06 09:48:33;;;;;;;0.30;0.30;;;21.80;99.90;;;;;;4966581;28;20054;-81
2022/08/06 09:50:59;;;;;;;0.30;0.30;;;21.80;99.90;;;;;;4967295;28;20041;-82
2022/08/06 09:53:28;;;;;;;0.30;0.30;;;22.10;99.90;;;;;;4964921;28;20128;-82
2022/08/06 09:55:56;;;;;;;0.30;0.30;;;22.50;99.90;;;;;;4964745;28;20462;-81
2022/08/06 09:58:37;;;;;;;0.30;0.30;;;21.80;99.90;;;;;;4964611;28;20050;-82
2022/08/06 10:01:23;;;;;;;0.30;0.30;;;21.80;99.90;;;;;;4967826;28;20042;-81
2022/08/06 10:03:56;;;;;;;0.30;0.30;;;21.70;99.90;;;;;;4975216;28;20121;-82
2022/08/06 10:06:23;;;;;;;0.30;0.30;;;21.80;99.90;;;;;;4971038;28;20050;-81
2022/08/06 10:09:03;;;;;;;0.30;0.30;;;22.30;99.90;;;;;;4976384;28;20053;-81
2022/08/06 10:11:39;;;;;;;0.30;0.30;;;22.80;99.90;;;;;;4978470;28;21202;-82
2022/08/06 10:14:05;;;;;;;0.30;0.30;;;23.40;99.90;;;;;;4980460;28;20248;-82
2022/08/06 10:16:31;;;;;;;0.30;0.30;;;23.20;99.90;;;;;;4974503;28;20104;-81
2022/08/06 10:18:59;;;;;;;0.30;0.30;;;23.40;99.90;;;;;;4975331;28;20513;-81
2022/08/06 10:21:32;;;;;;;0.30;0.30;;;23.10;99.90;;;;;;4973201;28;20041;-81
2022/08/06 10:24:03;;;;;;;0.30;0.30;;;23.50;99.90;;;;;;4973426;28;20141;-83
2022/08/06 10:26:33;;;;;;;0.30;0.30;;;23.50;99.90;;;;;;4979177;28;20232;-81
2022/08/06 10:29:07;;;;;;;0.30;0.30;;;23.80;99.10;;;;;;4975077;28;20045;-81
2022/08/06 10:31:34;;;;;;;;;;;23.90;99.90;;;;;;4975640;28;20042;-81
2022/08/06 10:34:19;;;;;;;0.30;0.30;;;24.30;99.90;;;;;;4974818;28;19975;-81
2022/08/06 10:37:02;;;;;;;0.25;0.25;;;24.30;99.90;;;;;;4975852;28;20050;-82
2022/08/06 10:39:34;;;;;;;0.20;0.20;;;24.50;99.90;;;;;;4973291;28;20152;-81
2022/08/06 10:42:01;;;;;;;0.30;0.30;;;24.90;99.90;;;;;;4973455;28;20057;-81
2022/08/06 10:44:34;;;;;;;0.20;0.20;;;25.10;99.20;;;;;;4974071;28;20058;-82
2022/08/06 10:47:02;;;;;;;0.20;0.20;;;24.10;99.30;;;;;;4971607;28;20568;-82
2022/08/06 10:49:30;;;;;;;0.20;0.20;;;23.60;99.90;;;;;;4971294;28;20049;-81
2022/08/06 10:51:56;;;;;;;0.20;0.20;;;23.80;99.90;;;;;;4970681;28;20517;-82
2022/08/06 10:54:23;;;;;;;0.20;0.20;;;23.80;99.90;;;;;;4974927;28;20070;-82
2022/08/06 10:56:50;;;;;;;0.20;0.20;;;23.50;99.90;;;;;;4982733;28;20459;-82
2022/08/06 10:59:17;;;;;;;0.28;0.28;;;23.10;99.90;;;;;;4963134;28;20053;-82
2022/08/06 11:02:01;;;;;;;0.25;0.25;;;23.50;99.80;;;;;;4965534;28;20058;-81
2022/08/06 11:04:55;;;;;;;0.20;0.20;;;23.70;98.40;;;;;;4965435;28;20684;-82
2022/08/06 11:07:57;;;;;;;0.20;0.20;;;23.10;97.60;;;;;;4961648;28;20062;-81
2022/08/06 11:10:30;;;;;;;0.30;0.30;;;22.90;99.40;;;;;;4957971;28;20046;-82
2022/08/06 11:13:30;;;;;;;0.30;0.30;;;22.40;99.70;;;;;;4953149;28;20132;-82
2022/08/06 11:15:56;;;;;;;0.22;0.22;;;22.90;99.90;;;;;;4953179;28;20046;-81
2022/08/06 11:18:22;;;;;;;0.30;0.30;;;23.50;99.90;;;;;;4956560;28;20053;-81
2022/08/06 11:20:52;;;;;;;0.30;0.30;;;23.90;99.30;;;;;;4948457;28;20042;-83
2022/08/06 11:23:18;;;;;;;0.30;0.30;;;24.00;98.20;;;;;;4956936;28;20064;-83
2022/08/06 11:25:48;;;;;;;0.30;0.30;;;24.40;98.20;;;;;;4958753;28;20511;-83
2022/08/06 11:28:18;;;;;;;0.30;0.30;;;24.30;97.90;;;;;;4961207;28;20046;-83
2022/08/06 11:30:53;;;;;;;0.28;0.28;;;24.20;98.10;;;;;;4965757;28;20049;-83
2022/08/06 11:33:41;;;;;;;0.28;0.28;;;24.50;98.40;;;;;;4963024;28;20058;-82
2022/08/06 11:36:09;;;;;;;0.20;0.20;;;24.80;96.70;;;;;;4969333;28;20054;-81
2022/08/06 11:38:47;;;;;;;0.22;0.22;;;25.00;96.70;;;;;;4970468;28;20510;-85
2022/08/06 11:41:22;;;;;;;0.20;0.20;;;24.20;95.40;;;;;;4965166;28;20050;-81
2022/08/06 11:44:05;;;;;;;0.20;0.20;;;24.00;95.80;;;;;;4961563;28;20037;-84
2022/08/06 11:46:36;;;;;;;0.30;0.30;;;23.50;97.20;;;;;;4962521;28;20046;-84
2022/08/06 11:49:03;;;;;;;0.20;0.20;;;23.10;98.60;;;;;;4970348;28;20054;-83
2022/08/06 11:51:44;;;;;;;0.30;0.30;;;22.90;99.20;;;;;;4968780;28;20131;-83
2022/08/06 11:54:26;;;;;;;0.20;0.20;;;22.60;98.70;;;;;;4966069;28;20061;-82
2022/08/06 11:57:01;;;;;;;0.20;0.20;;;21.90;98.80;;;;;;4980072;28;20104;-83
2022/08/06 11:59:44;;;;;;;0.20;0.20;;;22.10;99.70;;;;;;4967332;28;20057;-82
2022/08/06 12:02:34;;;;;;;0.20;0.20;;;21.50;98.50;;;;;;4965522;28;20058;-83
2022/08/06 12:05:00;;;;;;;0.30;0.30;;;21.40;98.70;;;;;;4968753;28;20046;-82
2022/08/06 12:07:33;;;;;;;0.30;0.30;;;21.50;99.90;;;;;;4969869;28;20653;-81
2022/08/06 12:10:05;;;;;;;0.20;0.20;;;21.50;99.90;;;;;;4962963;28;20053;-83
2022/08/06 12:12:31;;;;;;;0.30;0.30;;;21.50;99.90;;;;;;4964507;28;20058;-83
2022/08/06 12:15:24;;;;;;;0.20;0.20;;;21.40;99.90;;;;;;4963417;28;20064;-81
2022/08/06 12:17:56;;;;;;;0.30;0.30;;;21.80;99.90;;;;;;4961955;28;20089;-82
2022/08/06 12:20:31;;;;;;;0.22;0.22;;;21.80;99.90;;;;;;4969462;28;20479;-83
2022/08/06 12:23:01;;;;;;;0.20;0.20;;;21.80;99.90;;;;;;4967878;28;20050;-82
2022/08/06 12:25:34;;;;;;;0.30;0.30;;;22.00;99.90;;;;;;4970471;28;20605;-83
2022/08/06 12:28:01;;;;;;;0.30;0.30;;;21.90;99.90;;;;;;4964686;28;20524;-82
2022/08/06 12:30:27;;;;;;;0.20;0.20;;;22.00;99.90;;;;;;4963632;28;20670;-82
2022/08/06 12:33:00;;;;;;;0.20;0.20;;;22.40;99.90;;;;;;4967407;28;20058;-83
2022/08/06 12:35:27;;;;;;;0.30;0.30;;;23.00;99.90;;;;;;4966525;28;20449;-82
2022/08/06 12:37:54;;;;;;;0.22;0.22;;;22.80;99.90;;;;;;4962179;28;20056;-83
2022/08/06 12:40:23;;;;;;;0.20;0.20;;;23.00;99.90;;;;;;4979114;28;20085;-79
2022/08/06 12:42:50;;;;;;;0.20;0.20;;;23.00;99.90;;;;;;4946651;28;20088;-79
2022/08/06 12:45:27;;;;;;;0.20;0.20;;;23.40;99.90;;;;;;4968659;28;20046;-82
2022/08/06 12:48:12;;;;;;;0.30;0.30;;;24.00;99.90;;;;;;4963467;28;20108;-82
2022/08/06 12:50:43;;;;;;;0.20;0.20;;;24.40;99.40;;;;;;4967510;28;21258;-84
2022/08/06 12:53:14;;;;;;;0.25;0.25;;;24.50;99.60;;;;;;4965398;28;20505;-83
2022/08/06 12:55:44;;;;;;;0.30;0.30;;;23.90;99.20;;;;;;4964797;28;20153;-81
2022/08/06 12:58:13;;;;;;;0.30;0.30;;;23.60;99.90;;;;;;4972699;28;20034;-81
2022/08/06 13:00:41;;;;;;;0.30;0.30;;;23.00;99.90;;;;;;4976177;28;20494;-82
2022/08/06 13:03:08;;;;;;;0.30;0.30;;;23.30;99.90;;;;;;4971022;28;20457;-82
2022/08/06 13:06:06;;;;;;;0.28;0.28;;;22.80;99.50;;;;;;4970728;28;20061;-83
2022/08/06 13:08:33;;;;;;;0.20;0.20;;;22.70;98.80;;;;;;4984355;28;20046;-84
2022/08/06 13:10:59;;;;;;;0.30;0.30;;;22.60;99.90;;;;;;4979667;28;20089;-82
2022/08/06 13:13:40;;;;;;;0.20;0.20;;;23.00;99.90;;;;;;4981020;28;20132;-82